sensor_id;sensor_type;location;lat;lon;timestamp;pressure;altitude;pressure_sealevel;temperature;humidity
54407;BME280;40313;50.308;30.374;2022-07-12T02:54:07;99063.81;;;11.70;100.00
54407;BME280;40313;50.308;30.374;2022-07-12T02:56:34;99061.28;;;11.69;100.00
54407;BME280;40313;50.308;30.374;2022-07-12T02:59:02;99054.41;;;11.68;100.00
54407;BME280;40313;50.308;30.374;2022-07-12T03:01:31;99055.75;;;11.73;100.00
54407;BME280;40313;50.308;30.374;2022-07-12T03:03:59;99060.44;;;11.81;100.00
54407;BME280;40313;50.308;30.374;2022-07-12T03:06:37;99058.81;;;11.91;100.00
54407;BME280;40313;50.308;30.374;2022-07-12T03:09:08;99057.28;;;12.02;100.00
54407;BME280;40313;50.308;30.374;2022-07-12T03:11:37;99060.66;;;12.15;100.00
54407;BME280;40313;50.308;30.374;2022-07-12T03:14:04;99066.50;;;12.19;100.00
54407;BME280;40313;50.308;30.374;2022-07-12T03:16:38;99059.72;;;12.16;100.00
54407;BME280;40313;50.308;30.374;2022-07-12T03:19:09;99061.19;;;12.20;100.00
54407;BME280;40313;50.308;30.374;2022-07-12T03:21:39;99050.25;;;12.26;100.00
54407;BME280;40313;50.308;30.374;2022-07-12T03:24:26;99051.38;;;12.35;100.00
54407;BME280;40313;50.308;30.374;2022-07-12T03:29:37;99052.06;;;12.61;100.00
54407;BME280;40313;50.308;30.374;2022-07-12T03:32:13;99058.06;;;12.75;100.00
54407;BME280;40313;50.308;30.374;2022-07-12T03:34:58;99056.63;;;14.83;100.00
54407;BME280;40313;50.308;30.374;2022-07-12T03:37:40;99043.84;;;14.90;100.00
54407;BME280;40313;50.308;30.374;2022-07-12T03:40:09;99036.75;;;14.80;100.00
54407;BME280;40313;50.308;30.374;2022-07-12T03:42:48;99037.22;;;14.95;100.00
54407;BME280;40313;50.308;30.374;2022-07-12T03:45:25;99041.66;;;14.95;100.00
54407;BME280;40313;50.308;30.374;2022-07-12T03:47:56;99035.88;;;14.80;100.00
54407;BME280;40313;50.308;30.374;2022-07-12T03:50:23;99036.84;;;14.79;100.00
54407;BME280;40313;50.308;30.374;2022-07-12T03:52:57;99027.44;;;15.69;100.00
54407;BME280;40313;50.308;30.374;2022-07-12T03:55:29;99018.72;;;17.53;100.00
54407;BME280;40313;50.308;30.374;2022-07-12T03:58:09;99020.38;;;17.54;100.00
54407;BME280;40313;50.308;30.374;2022-07-12T04:00:41;99019.50;;;16.68;100.00
54407;BME280;40313;50.308;30.374;2022-07-12T04:03:11;99027.56;;;16.18;100.00
54407;BME280;40313;50.308;30.374;2022-07-12T04:05:40;99029.03;;;15.41;100.00
54407;BME280;40313;50.308;30.374;2022-07-12T04:08:11;99032.97;;;15.25;100.00
54407;BME280;40313;50.308;30.374;2022-07-12T04:10:56;99038.00;;;14.86;100.00
54407;BME280;40313;50.308;30.374;2022-07-12T04:13:26;99036.69;;;14.59;100.00
54407;BME280;40313;50.308;30.374;2022-07-12T04:16:01;99050.25;;;14.43;100.00
54407;BME280;40313;50.308;30.374;2022-07-12T04:21:38;99046.66;;;14.44;100.00
54407;BME280;40313;50.308;30.374;2022-07-12T04:24:10;99043.06;;;16.01;100.00
54407;BME280;40313;50.308;30.374;2022-07-12T04:26:47;99029.28;;;19.49;100.00
54407;BME280;40313;50.308;30.374;2022-07-12T04:29:32;99031.84;;;20.43;100.00
54407;BME280;40313;50.308;30.374;2022-07-12T04:32:07;99036.16;;;20.28;100.00
54407;BME280;40313;50.308;30.374;2022-07-12T04:35:02;99026.25;;;20.71;100.00
54407;BME280;40313;50.308;30.374;2022-07-12T04:40:30;99036.50;;;18.24;100.00
54407;BME280;40313;50.308;30.374;2022-07-12T04:43:10;99036.56;;;17.31;100.00
54407;BME280;40313;50.308;30.374;2022-07-12T04:45:46;99049.19;;;16.51;100.00
54407;BME280;40313;50.308;30.374;2022-07-12T04:48:13;99051.66;;;16.23;100.00
54407;BME280;40313;50.308;30.374;2022-07-12T04:50:48;99062.69;;;15.97;100.00
54407;BME280;40313;50.308;30.374;2022-07-12T04:53:26;99059.66;;;15.61;100.00
54407;BME280;40313;50.308;30.374;2022-07-12T04:56:24;99072.22;;;15.48;100.00
54407;BME280;40313;50.308;30.374;2022-07-12T04:59:05;99066.22;;;15.77;100.00
54407;BME280;40313;50.308;30.374;2022-07-12T05:04:37;99049.66;;;18.78;100.00
54407;BME280;40313;50.308;30.374;2022-07-12T05:07:13;99053.19;;;21.72;100.00
54407;BME280;40313;50.308;30.374;2022-07-12T05:09:40;99050.53;;;24.01;100.00
54407;BME280;40313;50.308;30.374;2022-07-12T05:12:13;99059.53;;;23.85;100.00
54407;BME280;40313;50.308;30.374;2022-07-12T05:14:44;99060.78;;;22.84;100.00
54407;BME280;40313;50.308;30.374;2022-07-12T05:17:30;99060.97;;;22.98;100.00
54407;BME280;40313;50.308;30.374;2022-07-12T05:20:17;99067.91;;;23.07;100.00
54407;BME280;40313;50.308;30.374;2022-07-12T05:22:54;99067.31;;;22.04;100.00
54407;BME280;40313;50.308;30.374;2022-07-12T05:26:49;99068.97;;;21.09;100.00
54407;BME280;40313;50.308;30.374;2022-07-12T05:28:31;99076.75;;;19.85;100.00
54407;BME280;40313;50.308;30.374;2022-07-12T05:31:17;99080.66;;;20.08;100.00
54407;BME280;40313;50.308;30.374;2022-07-12T05:34:09;99068.81;;;19.85;100.00
54407;BME280;40313;50.308;30.374;2022-07-12T05:39:26;99088.19;;;18.63;100.00
54407;BME280;40313;50.308;30.374;2022-07-12T05:42:18;99082.63;;;18.48;100.00
54407;BME280;40313;50.308;30.374;2022-07-12T05:45:02;99082.84;;;18.91;100.00
54407;BME280;40313;50.308;30.374;2022-07-12T05:47:50;99084.56;;;20.71;100.00
54407;BME280;40313;50.308;30.374;2022-07-12T05:50:34;99085.69;;;20.93;100.00
54407;BME280;40313;50.308;30.374;2022-07-12T05:53:17;99082.72;;;20.55;100.00
54407;BME280;40313;50.308;30.374;2022-07-12T05:58:45;99085.16;;;20.40;100.00
54407;BME280;40313;50.308;30.374;2022-07-12T06:01:27;99083.53;;;22.09;100.00
54407;BME280;40313;50.308;30.374;2022-07-12T06:04:08;99081.91;;;25.77;95.52
54407;BME280;40313;50.308;30.374;2022-07-12T06:06:51;99086.94;;;27.81;76.29
54407;BME280;40313;50.308;30.374;2022-07-12T06:09:29;99085.75;;;30.04;66.41
54407;BME280;40313;50.308;30.374;2022-07-12T06:12:14;99088.13;;;31.56;54.25
54407;BME280;40313;50.308;30.374;2022-07-12T06:15:26;99078.06;;;32.83;53.05
54407;BME280;40313;50.308;30.374;2022-07-12T06:17:55;99078.59;;;34.57;49.65
54407;BME280;40313;50.308;30.374;2022-07-12T06:20:31;99076.16;;;34.29;43.37
54407;BME280;40313;50.308;30.374;2022-07-12T06:23:15;99083.63;;;33.72;42.84
54407;BME280;40313;50.308;30.374;2022-07-12T06:25:53;99094.09;;;34.67;43.10
54407;BME280;40313;50.308;30.374;2022-07-12T06:28:39;99090.41;;;35.16;41.79
54407;BME280;40313;50.308;30.374;2022-07-12T06:31:22;99096.19;;;35.83;42.70
54407;BME280;40313;50.308;30.374;2022-07-12T06:33:57;99098.53;;;36.89;41.29
54407;BME280;40313;50.308;30.374;2022-07-12T06:36:30;99095.22;;;37.03;38.21
54407;BME280;40313;50.308;30.374;2022-07-12T06:38:58;99100.34;;;37.19;38.85
54407;BME280;40313;50.308;30.374;2022-07-12T06:41:47;99103.94;;;36.43;37.17
54407;BME280;40313;50.308;30.374;2022-07-12T06:44:17;99111.91;;;35.81;38.05
54407;BME280;40313;50.308;30.374;2022-07-12T06:46:55;99110.88;;;34.96;38.36
54407;BME280;40313;50.308;30.374;2022-07-12T06:49:25;99116.97;;;35.14;39.03
54407;BME280;40313;50.308;30.374;2022-07-12T06:51:54;99125.19;;;34.59;39.07
54407;BME280;40313;50.308;30.374;2022-07-12T06:54:25;99117.03;;;33.04;43.11
54407;BME280;40313;50.308;30.374;2022-07-12T06:57:05;99123.25;;;34.27;40.39
54407;BME280;40313;50.308;30.374;2022-07-12T06:59:43;99124.94;;;34.93;39.45
54407;BME280;40313;50.308;30.374;2022-07-12T07:02:25;99131.63;;;34.53;39.04
54407;BME280;40313;50.308;30.374;2022-07-12T07:04:58;99119.06;;;34.42;38.95
54407;BME280;40313;50.308;30.374;2022-07-12T07:07:31;99125.13;;;33.61;39.81
54407;BME280;40313;50.308;30.374;2022-07-12T07:10:03;99120.69;;;33.15;41.34
54407;BME280;40313;50.308;30.374;2022-07-12T07:12:33;99133.66;;;30.98;44.55
54407;BME280;40313;50.308;30.374;2022-07-12T07:15:27;99133.81;;;29.63;48.13
54407;BME280;40313;50.308;30.374;2022-07-12T07:18:15;99136.91;;;29.23;51.97
54407;BME280;40313;50.308;30.374;2022-07-12T07:20:43;99132.66;;;28.06;54.60
54407;BME280;40313;50.308;30.374;2022-07-12T07:23:56;99141.47;;;26.81;59.43
54407;BME280;40313;50.308;30.374;2022-07-12T07:26:38;99131.09;;;25.96;60.91
54407;BME280;40313;50.308;30.374;2022-07-12T07:29:09;99145.28;;;25.05;66.46
54407;BME280;40313;50.308;30.374;2022-07-12T07:31:54;99148.28;;;24.00;74.61
54407;BME280;40313;50.308;30.374;2022-07-12T07:34:28;99151.47;;;23.36;79.91
54407;BME280;40313;50.308;30.374;2022-07-12T07:40:05;99147.59;;;22.77;91.57
54407;BME280;40313;50.308;30.374;2022-07-12T07:43:10;99148.66;;;22.68;95.70
54407;BME280;40313;50.308;30.374;2022-07-12T07:45:57;99139.13;;;22.50;93.98
54407;BME280;40313;50.308;30.374;2022-07-12T07:48:40;99133.31;;;22.78;97.85
54407;BME280;40313;50.308;30.374;2022-07-12T07:51:17;99153.00;;;23.30;97.00
54407;BME280;40313;50.308;30.374;2022-07-12T07:53:50;99153.03;;;23.07;97.42
54407;BME280;40313;50.308;30.374;2022-07-12T07:56:24;99168.94;;;22.29;98.28
54407;BME280;40313;50.308;30.374;2022-07-12T07:59:21;99168.06;;;20.92;100.00
54407;BME280;40313;50.308;30.374;2022-07-12T08:05:08;99159.06;;;20.09;100.00
54407;BME280;40313;50.308;30.374;2022-07-12T08:07:50;99176.34;;;20.21;100.00
54407;BME280;40313;50.308;30.374;2022-07-12T08:10:26;99169.16;;;20.05;100.00
54407;BME280;40313;50.308;30.374;2022-07-12T08:12:55;99176.41;;;19.95;100.00
54407;BME280;40313;50.308;30.374;2022-07-12T08:15:25;99179.63;;;19.80;100.00
54407;BME280;40313;50.308;30.374;2022-07-12T08:17:52;99172.69;;;19.79;100.00
54407;BME280;40313;50.308;30.374;2022-07-12T08:20:21;99188.84;;;19.76;100.00
54407;BME280;40313;50.308;30.374;2022-07-12T08:22:53;99173.59;;;19.70;100.00
54407;BME280;40313;50.308;30.374;2022-07-12T08:25:27;99175.91;;;19.73;100.00
54407;BME280;40313;50.308;30.374;2022-07-12T08:27:55;99183.16;;;19.89;100.00
54407;BME280;40313;50.308;30.374;2022-07-12T08:30:38;99175.00;;;20.17;100.00
54407;BME280;40313;50.308;30.374;2022-07-12T08:33:14;99177.03;;;20.31;100.00
54407;BME280;40313;50.308;30.374;2022-07-12T08:35:56;99172.66;;;20.65;100.00
54407;BME280;40313;50.308;30.374;2022-07-12T08:38:27;99160.28;;;20.90;100.00
54407;BME280;40313;50.308;30.374;2022-07-12T08:40:56;99163.09;;;20.88;100.00
54407;BME280;40313;50.308;30.374;2022-07-12T08:43:49;99157.06;;;20.53;100.00
54407;BME280;40313;50.308;30.374;2022-07-12T08:46:28;99160.63;;;20.95;100.00
54407;BME280;40313;50.308;30.374;2022-07-12T08:49:05;99169.09;;;21.23;100.00
54407;BME280;40313;50.308;30.374;2022-07-12T08:51:46;99166.44;;;21.23;100.00
54407;BME280;40313;50.308;30.374;2022-07-12T08:54:23;99144.88;;;21.18;100.00
54407;BME280;40313;50.308;30.374;2022-07-12T08:56:58;99147.19;;;21.13;100.00
54407;BME280;40313;50.308;30.374;2022-07-12T08:59:47;99154.31;;;20.80;100.00
54407;BME280;40313;50.308;30.374;2022-07-12T09:02:20;99163.25;;;20.79;100.00
54407;BME280;40313;50.308;30.374;2022-07-12T09:05:24;99159.19;;;20.50;100.00
54407;BME280;40313;50.308;30.374;2022-07-12T09:08:05;99167.59;;;20.29;100.00
54407;BME280;40313;50.308;30.374;2022-07-12T09:10:56;99172.94;;;20.45;100.00
54407;BME280;40313;50.308;30.374;2022-07-12T09:13:45;99167.47;;;20.47;100.00
54407;BME280;40313;50.308;30.374;2022-07-12T09:16:27;99167.28;;;20.40;100.00
54407;BME280;40313;50.308;30.374;2022-07-12T09:19:15;99164.97;;;20.37;100.00
54407;BME280;40313;50.308;30.374;2022-07-12T09:22:28;99163.16;;;20.46;100.00
54407;BME280;40313;50.308;30.374;2022-07-12T09:25:22;99164.91;;;20.80;100.00
54407;BME280;40313;50.308;30.374;2022-07-12T09:27:57;99168.72;;;21.10;100.00
54407;BME280;40313;50.308;30.374;2022-07-12T09:30:28;99164.44;;;21.26;100.00
54407;BME280;40313;50.308;30.374;2022-07-12T09:33:13;99179.69;;;21.23;100.00
54407;BME280;40313;50.308;30.374;2022-07-12T09:36:21;99168.75;;;21.18;100.00
54407;BME280;40313;50.308;30.374;2022-07-12T09:38:59;99171.56;;;21.25;100.00
54407;BME280;40313;50.308;30.374;2022-07-12T09:41:36;99176.31;;;21.46;100.00
54407;BME280;40313;50.308;30.374;2022-07-12T09:44:14;99177.19;;;21.30;100.00
54407;BME280;40313;50.308;30.374;2022-07-12T09:47:12;99176.38;;;21.05;100.00
54407;BME280;40313;50.308;30.374;2022-07-12T09:52:41;99170.38;;;20.78;100.00
54407;BME280;40313;50.308;30.374;2022-07-12T09:55:33;99176.31;;;20.64;100.00
54407;BME280;40313;50.308;30.374;2022-07-12T09:58:07;99184.84;;;20.41;100.00
54407;BME280;40313;50.308;30.374;2022-07-12T10:00:51;99181.00;;;20.27;100.00
54407;BME280;40313;50.308;30.374;2022-07-12T10:03:30;99186.34;;;20.44;100.00
54407;BME280;40313;50.308;30.374;2022-07-12T10:06:07;99185.91;;;20.65;100.00
54407;BME280;40313;50.308;30.374;2022-07-12T10:08:50;99180.66;;;20.89;100.00
54407;BME280;40313;50.308;30.374;2022-07-12T10:11:25;99184.31;;;21.13;100.00
54407;BME280;40313;50.308;30.374;2022-07-12T10:13:56;99173.03;;;21.36;100.00
54407;BME280;40313;50.308;30.374;2022-07-12T10:16:38;99181.81;;;21.45;100.00
54407;BME280;40313;50.308;30.374;2022-07-12T10:19:24;99175.72;;;21.52;100.00
54407;BME280;40313;50.308;30.374;2022-07-12T10:22:18;99172.19;;;21.60;100.00
54407;BME280;40313;50.308;30.374;2022-07-12T10:25:01;99172.34;;;21.75;100.00
54407;BME280;40313;50.308;30.374;2022-07-12T10:27:40;99175.28;;;21.88;100.00
54407;BME280;40313;50.308;30.374;2022-07-12T10:30:22;99166.25;;;21.98;100.00
54407;BME280;40313;50.308;30.374;2022-07-12T10:32:53;99168.28;;;21.96;100.00
54407;BME280;40313;50.308;30.374;2022-07-12T10:35:37;99162.28;;;22.02;100.00
54407;BME280;40313;50.308;30.374;2022-07-12T10:38:22;99152.34;;;21.96;100.00
54407;BME280;40313;50.308;30.374;2022-07-12T10:41:16;99155.50;;;21.99;100.00
54407;BME280;40313;50.308;30.374;2022-07-12T10:44:03;99156.13;;;22.01;100.00
54407;BME280;40313;50.308;30.374;2022-07-12T10:46:56;99166.94;;;22.00;100.00
54407;BME280;40313;50.308;30.374;2022-07-12T10:49:46;99166.81;;;22.33;100.00
54407;BME280;40313;50.308;30.374;2022-07-12T10:52:27;99166.28;;;22.29;100.00
54407;BME280;40313;50.308;30.374;2022-07-12T10:55:21;99167.63;;;22.33;100.00
54407;BME280;40313;50.308;30.374;2022-07-12T11:00:41;99179.59;;;21.89;100.00
54407;BME280;40313;50.308;30.374;2022-07-12T11:03:18;99187.94;;;21.62;100.00
54407;BME280;40313;50.308;30.374;2022-07-12T11:08:53;99190.09;;;21.33;100.00
54407;BME280;40313;50.308;30.374;2022-07-12T11:11:24;99191.78;;;21.43;100.00
54407;BME280;40313;50.308;30.374;2022-07-12T11:13:56;99190.78;;;21.52;100.00
54407;BME280;40313;50.308;30.374;2022-07-12T11:16:26;99192.25;;;21.79;100.00
54407;BME280;40313;50.308;30.374;2022-07-12T11:19:06;99186.81;;;22.12;100.00
54407;BME280;40313;50.308;30.374;2022-07-12T11:21:37;99181.03;;;22.48;100.00
54407;BME280;40313;50.308;30.374;2022-07-12T11:24:24;99154.50;;;22.63;100.00
54407;BME280;40313;50.308;30.374;2022-07-12T11:26:55;99172.13;;;22.64;100.00
54407;BME280;40313;50.308;30.374;2022-07-12T11:29:29;99161.19;;;22.59;100.00
54407;BME280;40313;50.308;30.374;2022-07-12T11:32:09;99154.09;;;22.51;100.00
54407;BME280;40313;50.308;30.374;2022-07-12T11:34:52;99153.72;;;22.23;100.00
54407;BME280;40313;50.308;30.374;2022-07-12T11:37:31;99158.59;;;22.11;100.00
54407;BME280;40313;50.308;30.374;2022-07-12T11:40:03;99164.38;;;22.15;100.00
54407;BME280;40313;50.308;30.374;2022-07-12T11:42:57;99155.19;;;22.25;100.00
54407;BME280;40313;50.308;30.374;2022-07-12T11:45:42;99161.06;;;22.52;100.00
54407;BME280;40313;50.308;30.374;2022-07-12T11:48:18;99161.53;;;22.79;100.00
54407;BME280;40313;50.308;30.374;2022-07-12T11:50:52;99163.31;;;23.10;100.00
54407;BME280;40313;50.308;30.374;2022-07-12T11:53:33;99169.59;;;23.17;100.00
54407;BME280;40313;50.308;30.374;2022-07-12T11:56:18;99174.53;;;22.97;100.00
54407;BME280;40313;50.308;30.374;2022-07-12T11:59:09;99177.97;;;22.59;100.00
54407;BME280;40313;50.308;30.374;2022-07-12T12:02:03;99180.63;;;22.20;100.00
54407;BME280;40313;50.308;30.374;2022-07-12T12:04:50;99197.84;;;21.92;100.00
54407;BME280;40313;50.308;30.374;2022-07-12T12:07:40;99204.22;;;21.67;97.32
54407;BME280;40313;50.308;30.374;2022-07-12T12:10:16;99201.72;;;21.49;100.00
54407;BME280;40313;50.308;30.374;2022-07-12T12:12:54;99234.06;;;21.19;100.00
54407;BME280;40313;50.308;30.374;2022-07-12T12:15:27;99251.50;;;20.63;100.00
54407;BME280;40313;50.308;30.374;2022-07-12T12:17:56;99270.38;;;19.91;100.00
54407;BME280;40313;50.308;30.374;2022-07-12T12:20:28;99271.63;;;19.42;100.00
54407;BME280;40313;50.308;30.374;2022-07-12T12:23:09;99286.53;;;18.79;100.00
54407;BME280;40313;50.308;30.374;2022-07-12T12:25:48;99292.31;;;18.27;100.00
54407;BME280;40313;50.308;30.374;2022-07-12T12:28:40;99294.09;;;17.50;100.00
54407;BME280;40313;50.308;30.374;2022-07-12T12:31:30;99314.72;;;16.96;100.00
54407;BME280;40313;50.308;30.374;2022-07-12T12:33:58;99314.56;;;16.26;100.00
54407;BME280;40313;50.308;30.374;2022-07-12T12:36:27;99319.50;;;16.10;100.00
54407;BME280;40313;50.308;30.374;2022-07-12T12:39:08;99319.19;;;15.82;100.00
54407;BME280;40313;50.308;30.374;2022-07-12T12:41:42;99320.03;;;15.71;100.00
54407;BME280;40313;50.308;30.374;2022-07-12T12:44:18;99312.34;;;15.58;100.00
54407;BME280;40313;50.308;30.374;2022-07-12T12:46:54;99306.34;;;15.56;100.00
54407;BME280;40313;50.308;30.374;2022-07-12T12:49:52;99295.59;;;15.59;100.00
54407;BME280;40313;50.308;30.374;2022-07-12T12:52:20;99296.63;;;15.68;100.00
54407;BME280;40313;50.308;30.374;2022-07-12T12:54:47;99290.72;;;15.76;100.00
54407;BME280;40313;50.308;30.374;2022-07-12T12:57:22;99287.88;;;15.79;100.00
54407;BME280;40313;50.308;30.374;2022-07-12T12:59:54;99276.72;;;15.86;100.00
54407;BME280;40313;50.308;30.374;2022-07-12T13:02:30;99274.84;;;15.98;100.00
54407;BME280;40313;50.308;30.374;2022-07-12T13:05:21;99276.16;;;16.14;100.00
54407;BME280;40313;50.308;30.374;2022-07-12T13:08:04;99267.47;;;16.23;100.00
54407;BME280;40313;50.308;30.374;2022-07-12T13:10:39;99260.66;;;16.51;100.00
54407;BME280;40313;50.308;30.374;2022-07-12T13:13:21;99258.22;;;16.69;100.00
54407;BME280;40313;50.308;30.374;2022-07-12T13:15:52;99261.34;;;16.94;100.00
54407;BME280;40313;50.308;30.374;2022-07-12T13:18:25;99260.38;;;17.24;100.00
54407;BME280;40313;50.308;30.374;2022-07-12T13:20:52;99255.78;;;17.56;100.00
54407;BME280;40313;50.308;30.374;2022-07-12T13:23:41;99260.31;;;17.93;100.00
54407;BME280;40313;50.308;30.374;2022-07-12T13:26:09;99275.22;;;18.22;100.00
54407;BME280;40313;50.308;30.374;2022-07-12T13:28:36;99271.72;;;18.41;100.00
54407;BME280;40313;50.308;30.374;2022-07-12T13:31:03;99281.78;;;18.55;100.00
54407;BME280;40313;50.308;30.374;2022-07-12T13:33:31;99274.88;;;18.72;100.00
54407;BME280;40313;50.308;30.374;2022-07-12T13:35:57;99277.97;;;18.95;100.00
54407;BME280;40313;50.308;30.374;2022-07-12T13:38:24;99270.13;;;19.22;100.00
54407;BME280;40313;50.308;30.374;2022-07-12T13:40:51;99271.94;;;19.39;100.00
54407;BME280;40313;50.308;30.374;2022-07-12T13:43:18;99262.25;;;19.48;100.00
54407;BME280;40313;50.308;30.374;2022-07-12T13:45:45;99266.47;;;19.59;100.00
54407;BME280;40313;50.308;30.374;2022-07-12T13:48:12;99262.84;;;19.60;100.00
54407;BME280;40313;50.308;30.374;2022-07-12T13:50:40;99271.81;;;19.67;100.00
54407;BME280;40313;50.308;30.374;2022-07-12T13:53:07;99264.28;;;19.54;100.00
54407;BME280;40313;50.308;30.374;2022-07-12T13:55:34;99264.66;;;19.41;100.00
54407;BME280;40313;50.308;30.374;2022-07-12T13:58:01;99261.59;;;19.28;100.00
54407;BME280;40313;50.308;30.374;2022-07-12T14:00:27;99262.72;;;19.07;100.00
54407;BME280;40313;50.308;30.374;2022-07-12T14:02:54;99276.44;;;18.93;100.00
54407;BME280;40313;50.308;30.374;2022-07-12T14:05:21;99263.97;;;18.85;100.00
54407;BME280;40313;50.308;30.374;2022-07-12T14:07:50;99264.63;;;18.69;100.00
54407;BME280;40313;50.308;30.374;2022-07-12T14:10:17;99257.72;;;18.58;100.00
54407;BME280;40313;50.308;30.374;2022-07-12T14:12:44;99260.94;;;18.52;100.00
54407;BME280;40313;50.308;30.374;2022-07-12T14:15:11;99263.81;;;18.59;100.00
54407;BME280;40313;50.308;30.374;2022-07-12T14:17:46;99260.16;;;18.70;100.00
54407;BME280;40313;50.308;30.374;2022-07-12T14:20:15;99251.88;;;18.82;100.00
54407;BME280;40313;50.308;30.374;2022-07-12T14:22:43;99238.56;;;19.02;100.00
54407;BME280;40313;50.308;30.374;2022-07-12T14:25:12;99237.88;;;19.18;100.00
54407;BME280;40313;50.308;30.374;2022-07-12T14:27:40;99237.47;;;19.31;100.00
54407;BME280;40313;50.308;30.374;2022-07-12T14:30:08;99225.38;;;19.28;100.00
54407;BME280;40313;50.308;30.374;2022-07-12T14:32:36;99227.72;;;19.31;100.00
54407;BME280;40313;50.308;30.374;2022-07-12T14:35:03;99222.66;;;19.38;100.00
54407;BME280;40313;50.308;30.374;2022-07-12T14:37:30;99225.06;;;19.49;100.00
54407;BME280;40313;50.308;30.374;2022-07-12T14:39:57;99223.97;;;19.60;100.00
54407;BME280;40313;50.308;30.374;2022-07-12T14:42:26;99227.47;;;19.61;100.00
54407;BME280;40313;50.308;30.374;2022-07-12T14:44:52;99213.13;;;19.72;100.00
54407;BME280;40313;50.308;30.374;2022-07-12T14:47:19;99214.56;;;19.66;100.00
54407;BME280;40313;50.308;30.374;2022-07-12T14:49:46;99220.09;;;19.73;100.00
54407;BME280;40313;50.308;30.374;2022-07-12T14:52:13;99213.44;;;19.87;100.00
54407;BME280;40313;50.308;30.374;2022-07-12T14:54:41;99214.19;;;20.05;100.00
54407;BME280;40313;50.308;30.374;2022-07-12T14:57:08;99212.53;;;20.04;100.00
54407;BME280;40313;50.308;30.374;2022-07-12T14:59:36;99218.44;;;19.98;100.00
54407;BME280;40313;50.308;30.374;2022-07-12T15:02:02;99203.34;;;19.90;100.00
54407;BME280;40313;50.308;30.374;2022-07-12T15:04:29;99214.88;;;19.81;100.00
54407;BME280;40313;50.308;30.374;2022-07-12T15:06:56;99214.72;;;19.82;100.00
54407;BME280;40313;50.308;30.374;2022-07-12T15:09:22;99215.69;;;19.81;100.00
54407;BME280;40313;50.308;30.374;2022-07-12T15:11:49;99202.47;;;19.81;100.00
54407;BME280;40313;50.308;30.374;2022-07-12T15:14:16;99214.28;;;19.95;100.00
54407;BME280;40313;50.308;30.374;2022-07-12T15:16:44;99213.53;;;20.11;100.00
54407;BME280;40313;50.308;30.374;2022-07-12T15:19:11;99210.53;;;20.06;100.00
54407;BME280;40313;50.308;30.374;2022-07-12T15:21:37;99214.41;;;19.85;100.00
54407;BME280;40313;50.308;30.374;2022-07-12T15:24:04;99215.59;;;19.65;100.00
54407;BME280;40313;50.308;30.374;2022-07-12T15:26:31;99226.34;;;19.45;100.00
54407;BME280;40313;50.308;30.374;2022-07-12T15:28:59;99223.78;;;19.36;100.00
54407;BME280;40313;50.308;30.374;2022-07-12T15:31:27;99223.72;;;19.27;100.00
54407;BME280;40313;50.308;30.374;2022-07-12T15:33:55;99225.31;;;19.20;100.00
54407;BME280;40313;50.308;30.374;2022-07-12T15:36:22;99217.31;;;18.94;100.00
54407;BME280;40313;50.308;30.374;2022-07-12T15:38:49;99224.47;;;18.83;100.00
54407;BME280;40313;50.308;30.374;2022-07-12T15:41:17;99225.94;;;18.68;100.00
54407;BME280;40313;50.308;30.374;2022-07-12T15:43:44;99230.38;;;18.68;100.00
54407;BME280;40313;50.308;30.374;2022-07-12T15:46:11;99226.47;;;18.54;100.00
54407;BME280;40313;50.308;30.374;2022-07-12T15:48:38;99226.81;;;18.41;100.00
54407;BME280;40313;50.308;30.374;2022-07-12T15:51:07;99222.84;;;18.27;100.00
54407;BME280;40313;50.308;30.374;2022-07-12T15:53:34;99223.72;;;18.18;100.00
54407;BME280;40313;50.308;30.374;2022-07-12T15:56:01;99230.81;;;18.07;100.00
54407;BME280;40313;50.308;30.374;2022-07-12T15:58:30;99231.72;;;17.98;100.00
54407;BME280;40313;50.308;30.374;2022-07-12T16:00:58;99229.38;;;17.95;100.00
54407;BME280;40313;50.308;30.374;2022-07-12T16:03:25;99227.97;;;17.91;100.00
54407;BME280;40313;50.308;30.374;2022-07-12T16:05:53;99236.84;;;17.90;100.00
54407;BME280;40313;50.308;30.374;2022-07-12T16:08:21;99248.78;;;17.84;100.00
54407;BME280;40313;50.308;30.374;2022-07-12T16:10:48;99237.97;;;17.77;100.00
54407;BME280;40313;50.308;30.374;2022-07-12T16:13:15;99244.94;;;17.69;100.00
54407;BME280;40313;50.308;30.374;2022-07-12T16:15:42;99236.34;;;17.57;100.00
54407;BME280;40313;50.308;30.374;2022-07-12T16:18:09;99242.22;;;17.41;100.00
54407;BME280;40313;50.308;30.374;2022-07-12T16:20:38;99241.38;;;17.31;100.00
54407;BME280;40313;50.308;30.374;2022-07-12T16:23:04;99243.06;;;17.22;100.00
54407;BME280;40313;50.308;30.374;2022-07-12T16:25:33;99244.69;;;17.13;100.00
54407;BME280;40313;50.308;30.374;2022-07-12T16:28:00;99238.47;;;17.04;100.00
54407;BME280;40313;50.308;30.374;2022-07-12T16:30:27;99227.09;;;16.94;100.00
54407;BME280;40313;50.308;30.374;2022-07-12T16:32:54;99226.66;;;16.89;100.00
54407;BME280;40313;50.308;30.374;2022-07-12T16:35:21;99225.78;;;16.79;100.00
54407;BME280;40313;50.308;30.374;2022-07-12T16:37:48;99236.88;;;16.72;100.00
54407;BME280;40313;50.308;30.374;2022-07-12T16:40:15;99228.53;;;16.67;100.00
54407;BME280;40313;50.308;30.374;2022-07-12T16:42:43;99225.75;;;16.59;100.00
54407;BME280;40313;50.308;30.374;2022-07-12T16:45:10;99229.91;;;16.52;100.00
54407;BME280;40313;50.308;30.374;2022-07-12T16:47:37;99222.53;;;16.46;100.00
54407;BME280;40313;50.308;30.374;2022-07-12T16:50:05;99216.72;;;16.42;100.00